createdAt,value
2019-04-20T00:04:30.993Z,98419.17
2019-04-20T00:09:36.560Z,98423.02
2019-04-20T00:14:40.541Z,98430.71
2019-04-20T00:19:50.369Z,98425.42
2019-04-20T00:25:15.520Z,98428.55
2019-04-20T00:30:31.456Z,98428.13
2019-04-20T00:35:23.056Z,98426.61
2019-04-20T00:40:28.546Z,98427.19
2019-04-20T00:45:36.475Z,98424.02
2019-04-20T00:50:57.498Z,98421.88
2019-04-20T00:55:48.492Z,98421.95
2019-04-20T01:01:13.061Z,98424.69
2019-04-20T01:06:26.981Z,98423.38
2019-04-20T01:11:23.150Z,98425.70
2019-04-20T01:16:33.639Z,98417.27
2019-04-20T01:21:32.167Z,98409.22
2019-04-20T01:26:45.968Z,98399.41
2019-04-20T01:31:56.016Z,98396.04
2019-04-20T01:37:04.393Z,98398.07
2019-04-20T01:41:56.130Z,98390.53
2019-04-20T01:47:04.533Z,98387.13
2019-04-20T01:52:17.350Z,98386.08
2019-04-20T01:57:53.421Z,98387.98
2019-04-20T02:02:47.718Z,98381.84
2019-04-20T02:07:49.380Z,98380.42
2019-04-20T02:12:59.872Z,98383.88
2019-04-20T02:18:15.010Z,98391.89
2019-04-20T02:23:23.747Z,98383.64
2019-04-20T02:28:27.277Z,98386.09
2019-04-20T02:44:18.058Z,98377.52
2019-04-20T02:49:29.651Z,98380.53
2019-04-20T02:59:57.525Z,98382.86
2019-04-20T03:04:06.947Z,98385.83
2019-04-20T03:09:32.455Z,98379.41
2019-04-20T03:14:33.607Z,98398.92
2019-04-20T03:19:40.157Z,98406.23
2019-04-20T03:24:49.841Z,98408.56
2019-04-20T03:29:56.661Z,98406.88
2019-04-20T03:40:07.354Z,98425.11
2019-04-20T03:45:00.540Z,98428.90
2019-04-20T03:50:29.323Z,98434.65
2019-04-20T03:55:34.188Z,98442.32
2019-04-20T04:00:51.773Z,98440.27
2019-04-20T04:05:50.928Z,98446.96
2019-04-20T04:11:02.809Z,98452.45
2019-04-20T04:15:59.249Z,98453.16
2019-04-20T04:21:03.882Z,98464.00
2019-04-20T04:26:22.099Z,98460.63
2019-04-20T04:31:32.331Z,98474.06
2019-04-20T04:36:36.170Z,98477.48
2019-04-20T04:41:39.936Z,98482.79
2019-04-20T04:46:33.935Z,98485.91
2019-04-20T04:51:47.086Z,98492.44
2019-04-20T04:56:44.178Z,98496.67
2019-04-20T05:01:53.423Z,98493.11
2019-04-20T05:07:07.935Z,98496.39
2019-04-20T05:12:09.899Z,98504.39
2019-04-20T05:17:29.159Z,98510.75
2019-04-20T05:22:58.707Z,98508.39
2019-04-20T05:28:16.841Z,98513.75
2019-04-20T05:33:21.211Z,98516.98
2019-04-20T05:38:41.898Z,98524.63
2019-04-20T05:43:41.498Z,98524.71
2019-04-20T05:49:00.351Z,98536.36
2019-04-20T05:54:02.803Z,98536.63
2019-04-20T05:59:05.843Z,98536.42
2019-04-20T06:04:10.504Z,98540.80
2019-04-20T06:09:22.673Z,98546.62
2019-04-20T06:14:20.550Z,98559.83
2019-04-20T06:19:45.415Z,98556.78
2019-04-20T06:24:59.168Z,98555.34
2019-04-20T06:29:55.761Z,98561.48
2019-04-20T06:35:09.307Z,98562.37
2019-04-20T06:40:29.303Z,98566.59
2019-04-20T06:45:20.083Z,98569.47
2019-04-20T06:50:24.367Z,98576.86
2019-04-20T06:55:38.694Z,98582.34
2019-04-20T07:00:40.066Z,98585.35
2019-04-20T07:05:49.042Z,98586.03
2019-04-20T07:11:10.793Z,98585.78
2019-04-20T07:15:54.492Z,98585.02
2019-04-20T07:21:05.782Z,98578.03
2019-04-20T07:26:16.822Z,98580.59
2019-04-20T07:31:19.070Z,98584.37
2019-04-20T07:36:32.457Z,98578.95
2019-04-20T07:41:42.996Z,98584.64
2019-04-20T07:46:47.181Z,98583.10
2019-04-20T07:51:31.672Z,98590.11
2019-04-20T07:56:48.011Z,98594.59
2019-04-20T08:02:11.991Z,98599.56
2019-04-20T08:06:54.746Z,98608.55
2019-04-20T08:12:22.169Z,98607.36
2019-04-20T08:17:44.271Z,98596.38
2019-04-20T08:22:28.279Z,98597.23
2019-04-20T08:27:17.611Z,98596.34
2019-04-20T08:32:41.438Z,98599.44
2019-04-20T08:38:00.884Z,98595.75
2019-04-20T08:43:07.914Z,98595.30
2019-04-20T08:48:16.066Z,98603.52
2019-04-20T08:53:17.473Z,98606.02
2019-04-20T08:57:54.809Z,98601.41
2019-04-20T09:03:09.408Z,98608.55
2019-04-20T09:08:14.440Z,98609.56
2019-04-20T09:13:21.412Z,98606.37
2019-04-20T09:18:36.693Z,98604.83
2019-04-20T09:23:49.695Z,98606.05
2019-04-20T09:28:59.286Z,98606.62
2019-04-20T09:34:16.157Z,98609.61
2019-04-20T09:39:15.074Z,98599.91
2019-04-20T09:44:13.707Z,98598.22
2019-04-20T09:49:32.641Z,98590.02
2019-04-20T09:54:42.928Z,98597.87
2019-04-20T09:59:49.707Z,98582.87
2019-04-20T10:04:37.588Z,98588.39
2019-04-20T10:09:44.947Z,98587.20
2019-04-20T10:14:50.884Z,98582.25
2019-04-20T10:19:55.817Z,98582.55
2019-04-20T10:25:02.529Z,98576.22
2019-04-20T10:30:08.224Z,98573.66
2019-04-20T10:35:15.104Z,98578.40
2019-04-20T10:40:36.851Z,98587.62
2019-04-20T10:45:26.702Z,98599.34
2019-04-20T10:50:32.379Z,98600.14
2019-04-20T10:55:37.741Z,98605.23
2019-04-20T11:00:44.138Z,98615.27
2019-04-20T11:05:49.037Z,98608.27
2019-04-20T11:11:03.493Z,98610.69
2019-04-20T11:16:02.187Z,98604.20
2019-04-20T11:21:07.146Z,98602.66
2019-04-20T11:26:12.220Z,98595.89
2019-04-20T11:31:16.983Z,98594.10
2019-04-20T11:36:23.186Z,98594.83
2019-04-20T11:41:33.653Z,98593.66
2019-04-20T11:46:38.714Z,98593.32
2019-04-20T11:51:43.614Z,98597.55
2019-04-20T11:56:49.063Z,98609.47
2019-04-20T12:02:07.602Z,98612.78
2019-04-20T12:07:11.085Z,98615.34
2019-04-20T12:12:27.529Z,98609.72
2019-04-20T12:17:23.683Z,98612.88
2019-04-20T12:22:28.663Z,98609.14
2019-04-20T12:27:34.431Z,98606.95
2019-04-20T12:32:42.984Z,98607.72
2019-04-20T12:37:47.237Z,98599.93
2019-04-20T12:42:53.038Z,98595.80
2019-04-20T12:47:58.014Z,98588.91
2019-04-20T12:53:02.754Z,98593.42
2019-04-20T12:58:10.414Z,98588.05
2019-04-20T13:03:15.321Z,98579.89
2019-04-20T13:08:21.713Z,98584.05
2019-04-20T13:13:46.214Z,98585.26
2019-04-20T13:18:55.321Z,98581.10
2019-04-20T13:24:00.890Z,98573.30
2019-04-20T13:29:06.774Z,98566.45
2019-04-20T13:34:13.284Z,98564.64
2019-04-20T13:39:19.890Z,98564.00
2019-04-20T13:44:24.795Z,98547.05
2019-04-20T13:49:29.440Z,98550.17
2019-04-20T13:54:34.182Z,98543.73
2019-04-20T13:59:50.023Z,98548.73
2019-04-20T14:04:57.310Z,98551.30
2019-04-20T14:10:01.998Z,98554.36
2019-04-20T14:15:07.513Z,98550.39
2019-04-20T14:20:15.830Z,98549.41
2019-04-20T14:25:18.729Z,98551.66
2019-04-20T14:30:24.739Z,98553.39
2019-04-20T14:35:29.646Z,98555.77
2019-04-20T14:40:34.713Z,98552.13
2019-04-20T14:45:41.076Z,98552.22
2019-04-20T14:50:45.817Z,98564.69
2019-04-20T14:55:51.427Z,98560.29
2019-04-20T15:00:58.540Z,98549.92
2019-04-20T15:06:03.546Z,98552.55
2019-04-20T15:11:09.285Z,98543.09
2019-04-20T15:16:15.046Z,98555.72
2019-04-20T15:21:23.776Z,98549.56
2019-04-20T15:26:28.790Z,98556.55
2019-04-20T15:31:34.329Z,98554.66
2019-04-20T15:36:40.214Z,98561.61
2019-04-20T15:41:45.294Z,98558.82
2019-04-20T15:46:51.529Z,98553.05
2019-04-20T15:51:57.502Z,98552.05
2019-04-20T15:57:09.244Z,98547.88
2019-04-20T16:02:11.370Z,98548.58
2019-04-20T16:07:17.198Z,98549.62
2019-04-20T16:12:23.028Z,98546.34
2019-04-20T16:17:32.765Z,98545.74
2019-04-20T16:22:36.551Z,98545.48
2019-04-20T16:27:41.620Z,98540.58
2019-04-20T16:32:46.488Z,98549.49
2019-04-20T16:37:52.644Z,98546.89
2019-04-20T16:42:58.520Z,98541.73
2019-04-20T16:48:05.036Z,98551.07
2019-04-20T16:53:10.752Z,98541.69
2019-04-20T16:58:17.762Z,98537.30
2019-04-20T17:03:27.859Z,98543.64
2019-04-20T17:08:31.105Z,98550.11
2019-04-20T17:13:43.404Z,98555.48
2019-04-20T17:18:43.369Z,98560.11
2019-04-20T17:23:49.104Z,98564.41
2019-04-20T17:28:55.688Z,98574.72
2019-04-20T17:34:17.530Z,98564.23
2019-04-20T17:39:11.903Z,98563.39
2019-04-20T17:44:31.429Z,98573.98
2019-04-20T17:49:36.886Z,98575.26
2019-04-20T17:54:37.642Z,98578.30
2019-04-20T17:59:51.211Z,98581.45
2019-04-20T18:05:25.616Z,98583.86
2019-04-20T18:10:25.996Z,98589.48
2019-04-20T18:15:33.520Z,98596.23
2019-04-20T18:20:34.929Z,98603.78
2019-04-20T18:26:06.086Z,98612.77
2019-04-20T18:31:07.138Z,98615.38
2019-04-20T18:36:13.310Z,98622.16
2019-04-20T18:41:33.206Z,98625.81
2019-04-20T18:46:49.917Z,98625.64
2019-04-20T18:51:30.266Z,98625.54
2019-04-20T18:56:41.954Z,98631.81
2019-04-20T19:01:43.751Z,98627.78
2019-04-20T19:06:52.475Z,98632.00
2019-04-20T19:12:07.418Z,98634.64
2019-04-20T19:17:49.292Z,98632.67
2019-04-20T19:22:46.037Z,98632.58
2019-04-20T19:27:55.609Z,98633.30
2019-04-20T19:33:17.616Z,98626.31
2019-04-20T19:38:12.557Z,98626.65
2019-04-20T19:43:20.778Z,98635.27
2019-04-20T19:48:32.152Z,98633.64
2019-04-20T19:53:48.287Z,98642.50
2019-04-20T19:58:45.537Z,98639.31
2019-04-20T20:03:38.062Z,98638.98
2019-04-20T20:08:53.145Z,98635.42
2019-04-20T20:13:55.318Z,98636.58
2019-04-20T20:19:07.430Z,98634.16
2019-04-20T20:24:06.047Z,98639.94
2019-04-20T20:29:23.279Z,98634.41
2019-04-20T20:39:40.369Z,98636.22
2019-04-20T20:44:52.676Z,98633.69
2019-04-20T20:50:14.040Z,98635.38
2019-04-20T20:55:06.481Z,98636.78
2019-04-20T21:00:24.177Z,98627.36
2019-04-20T21:05:15.636Z,98626.16
2019-04-20T21:10:25.869Z,98622.22
2019-04-20T21:15:28.567Z,98607.75
2019-04-20T21:20:55.098Z,98609.81
2019-04-20T21:25:47.566Z,98612.53
2019-04-20T21:30:48.993Z,98614.32
2019-04-20T21:35:55.103Z,98605.57
2019-04-20T21:41:05.100Z,98598.19
2019-04-20T21:46:08.940Z,98600.21
2019-04-20T21:51:29.689Z,98608.32
2019-04-20T21:56:19.873Z,98610.89
2019-04-20T22:01:33.371Z,98608.27
2019-04-20T22:06:32.048Z,98614.82
2019-04-20T22:11:37.920Z,98607.96
2019-04-20T22:16:49.195Z,98605.78
2019-04-20T22:22:00.886Z,98598.86
2019-04-20T22:27:06.354Z,98592.32
2019-04-20T22:32:08.914Z,98587.31
2019-04-20T22:37:17.826Z,98589.94
2019-04-20T22:42:18.291Z,98583.55
2019-04-20T22:47:28.150Z,98581.19
2019-04-20T22:52:42.725Z,98577.71
2019-04-20T22:57:52.381Z,98576.57
2019-04-20T23:02:42.715Z,98566.60
2019-04-20T23:07:48.684Z,98559.45
2019-04-20T23:12:57.545Z,98566.77
2019-04-20T23:18:00.139Z,98562.80
2019-04-20T23:23:04.995Z,98561.17
2019-04-20T23:28:13.816Z,98559.87
2019-04-20T23:33:16.121Z,98558.78
2019-04-20T23:38:24.170Z,98545.15
2019-04-20T23:43:33.365Z,98533.70
2019-04-20T23:48:41.214Z,98534.52
2019-04-20T23:53:54.068Z,98537.18
2019-04-20T23:58:53.446Z,98528.05
